Airfield :
LOGIN :

Register | Disclaimer

   EN    FR    IT 

 










Legend :    VFR   Marginal VFR   IFR   Intensive IFR   Very Intensive IFR
Visi :
Ceiling :
>= 8 km
>= 3000ft
5 to 8 km
1000 to 3000 ft
1500m to 5 km
500 to 1000 ft
800 to 1500m
200 to 500 ft
< 800m
< 200 ft
Symbols :   Thunderstorms  Fog  Heavy snow  Heavy precipitations  Wind > 20 kt
SIGMETs :     Misc.  Thunderstorms  Icing  Turbulence  Mountain Waves  Volcanic Ashes






- Airport Elevation : 741 ft
- IATA code : PED


LKPD - Pardubice AB

CURRENT METAR :
  • 071600Z 32010KT 9999 SCT035 10/00 Q1012 NOSIG RMK BLU BLU

EXPIRED METARs :
  • 071530Z 30012KT 9999 BKN034 10/M00 Q1012 NOSIG RMK BLU BLU
  • 071500Z 30008KT 9999 BKN031 10/04 Q1011 NOSIG RMK BLU BLU
  • 071430Z 27007KT 250V310 9999 SCT033 BKN060 09/06 Q1011 NOSIG RMK BLU BLU
  • 071400Z 28004KT 230V320 9999 -SHRA SCT028 SCT055 08/05 Q1011 NOSIG RMK BLU BLU
  • 071330Z 31007KT 9999 SCT032 OVC051 07/04 Q1010 NOSIG RMK BLU BLU

TAF TAF LKPD
Valid from the 07 at 12:00 until the 08 at 12:00 UTC


071100Z 0712/0812 28014KT 9999 SCT040
TEMPO 0712/0717 28016G26KT 7000 SHRA SCT020TCU BKN040
PROB30
TEMPO 0712/0715 29020G32KT 5000 TSRA SCT017CB



MET'MAP, your aeronautical weather chart ! - Copyright ORBIFLY December 2007 - Disclaimer

ORBIFLY MET'MAP TEAM :

Programming & Development : Alexandra Zaïnal
Concept & original design : Baudouin d'Aumeries
Assistance for programming : Marc-Olivier Méhu
Technical & hardware support : Manuel Goepfert

Contact : metmap@orbifly.com




SOURCES & CREDITS :

   NOAA